Portada
METAR-TAF:

METAR-TAF

Aeroports :

Kharg, Iran

latitud: 29-15-34N, longitud: 50-19-24E, altitud: 5 m

Observació

L'informe es va fer fa 1 hora i 6 minuts, a les 03:00 UTC
Vent 4 kt del Est
Temperatura 20°C
Humitat 64%
Pressió 1011 hPa
Visibilitat 10 km o més
Escasses núvols a una alçada de 3000 ft, Cumulonimbus.
Núvols disperses a una alçada de 3500 ft
Cel cobert a una alçada de 9000 ft

METAR: OIBQ 200300Z 08004KT 9999 FEW030CB SCT035 OVC090 20/13 Q1011

Hora: 07:36 (04:06 UTC)


TAF: manca

Observacions i pronòstics meteorològics de més de 4000 aeroports (METAR i TAF).

Les estacions disponibles són els punts grocs i vermells al mapa.

Posi el ratolí al punt desitjat per veure el nom de l'estació.

Feu clic per veure les observacions i els pronòstics meteorològics.

Per canviar el mapa: feu clic els botons verds amb una creu de color negre per apropar; al botó verd amb un guió per allunyar la imatge; o en les fletxes verdes per a mapes adjacents.


METAR-TAF: